sensor_id;sensor_type;location;lat;lon;timestamp;temperature;humidity
42683;DHT22;28293;50.930;3.464;2023-04-12T00:01:57;9.60;89.00
42683;DHT22;28293;50.930;3.464;2023-04-12T00:04:22;9.60;89.00
42683;DHT22;28293;50.930;3.464;2023-04-12T00:06:53;9.60;89.20
42683;DHT22;28293;50.930;3.464;2023-04-12T00:09:19;9.50;89.40
42683;DHT22;28293;50.930;3.464;2023-04-12T00:11:45;9.60;89.40
42683;DHT22;28293;50.930;3.464;2023-04-12T00:14:10;9.50;89.50
42683;DHT22;28293;50.930;3.464;2023-04-12T00:16:36;9.50;89.50
42683;DHT22;28293;50.930;3.464;2023-04-12T00:19:03;9.50;89.50
42683;DHT22;28293;50.930;3.464;2023-04-12T00:21:29;9.50;89.50
42683;DHT22;28293;50.930;3.464;2023-04-12T00:23:55;9.50;89.60
42683;DHT22;28293;50.930;3.464;2023-04-12T00:26:21;9.50;89.70
42683;DHT22;28293;50.930;3.464;2023-04-12T00:28:47;9.60;89.60
42683;DHT22;28293;50.930;3.464;2023-04-12T00:31:12;9.50;89.70
42683;DHT22;28293;50.930;3.464;2023-04-12T00:33:38;9.60;89.50
42683;DHT22;28293;50.930;3.464;2023-04-12T00:36:04;9.60;89.60
42683;DHT22;28293;50.930;3.464;2023-04-12T00:38:30;9.60;89.60
42683;DHT22;28293;50.930;3.464;2023-04-12T00:40:56;9.60;89.50
42683;DHT22;28293;50.930;3.464;2023-04-12T00:43:21;9.60;89.60
42683;DHT22;28293;50.930;3.464;2023-04-12T00:45:52;9.60;89.60
42683;DHT22;28293;50.930;3.464;2023-04-12T00:48:18;9.60;89.50
42683;DHT22;28293;50.930;3.464;2023-04-12T00:50:44;9.60;89.70
42683;DHT22;28293;50.930;3.464;2023-04-12T00:53:13;9.60;89.60
42683;DHT22;28293;50.930;3.464;2023-04-12T00:55:43;9.60;89.70
42683;DHT22;28293;50.930;3.464;2023-04-12T00:58:08;9.60;89.70
42683;DHT22;28293;50.930;3.464;2023-04-12T01:00:34;9.60;89.70
42683;DHT22;28293;50.930;3.464;2023-04-12T01:03:01;9.60;89.90
42683;DHT22;28293;50.930;3.464;2023-04-12T01:05:27;9.60;89.70
42683;DHT22;28293;50.930;3.464;2023-04-12T01:08:13;9.60;89.80
42683;DHT22;28293;50.930;3.464;2023-04-12T01:10:49;9.70;89.60
42683;DHT22;28293;50.930;3.464;2023-04-12T01:16:13;9.70;89.70
42683;DHT22;28293;50.930;3.464;2023-04-12T01:18:41;9.70;89.90
42683;DHT22;28293;50.930;3.464;2023-04-12T01:21:15;9.70;89.90
42683;DHT22;28293;50.930;3.464;2023-04-12T01:26:42;9.70;90.20
42683;DHT22;28293;50.930;3.464;2023-04-12T01:29:14;9.70;90.20
42683;DHT22;28293;50.930;3.464;2023-04-12T01:31:52;9.70;90.30
42683;DHT22;28293;50.930;3.464;2023-04-12T01:34:20;9.70;90.40
42683;DHT22;28293;50.930;3.464;2023-04-12T01:36:47;9.70;90.50
42683;DHT22;28293;50.930;3.464;2023-04-12T01:39:13;9.70;90.60
42683;DHT22;28293;50.930;3.464;2023-04-12T01:41:40;9.70;90.70
42683;DHT22;28293;50.930;3.464;2023-04-12T01:44:07;9.70;90.70
42683;DHT22;28293;50.930;3.464;2023-04-12T01:46:34;9.80;90.50
42683;DHT22;28293;50.930;3.464;2023-04-12T01:49:01;9.70;90.60
42683;DHT22;28293;50.930;3.464;2023-04-12T01:51:57;9.80;90.70
42683;DHT22;28293;50.930;3.464;2023-04-12T01:54:31;9.80;90.80
42683;DHT22;28293;50.930;3.464;2023-04-12T01:57:01;9.80;90.70
42683;DHT22;28293;50.930;3.464;2023-04-12T01:59:38;9.80;90.70
42683;DHT22;28293;50.930;3.464;2023-04-12T02:02:04;9.80;90.80
42683;DHT22;28293;50.930;3.464;2023-04-12T02:04:32;9.90;90.70
42683;DHT22;28293;50.930;3.464;2023-04-12T02:06:59;9.90;90.70
42683;DHT22;28293;50.930;3.464;2023-04-12T02:09:25;9.90;90.70
42683;DHT22;28293;50.930;3.464;2023-04-12T02:11:50;9.90;90.80
42683;DHT22;28293;50.930;3.464;2023-04-12T02:14:16;9.90;90.80
42683;DHT22;28293;50.930;3.464;2023-04-12T02:16:42;10.00;90.70
42683;DHT22;28293;50.930;3.464;2023-04-12T02:19:09;10.00;90.70
42683;DHT22;28293;50.930;3.464;2023-04-12T02:21:42;10.00;90.60
42683;DHT22;28293;50.930;3.464;2023-04-12T02:24:09;10.00;90.50
42683;DHT22;28293;50.930;3.464;2023-04-12T02:26:35;10.00;90.50
42683;DHT22;28293;50.930;3.464;2023-04-12T02:29:02;10.10;90.60
42683;DHT22;28293;50.930;3.464;2023-04-12T02:31:27;10.10;90.50
42683;DHT22;28293;50.930;3.464;2023-04-12T02:33:56;10.10;90.60
42683;DHT22;28293;50.930;3.464;2023-04-12T02:36:21;10.10;90.60
42683;DHT22;28293;50.930;3.464;2023-04-12T02:38:47;10.00;90.70
42683;DHT22;28293;50.930;3.464;2023-04-12T02:41:18;10.00;90.90
42683;DHT22;28293;50.930;3.464;2023-04-12T02:43:45;10.00;90.90
42683;DHT22;28293;50.930;3.464;2023-04-12T02:46:22;10.10;90.90
42683;DHT22;28293;50.930;3.464;2023-04-12T02:48:48;10.10;90.80
42683;DHT22;28293;50.930;3.464;2023-04-12T02:51:14;10.10;90.80
42683;DHT22;28293;50.930;3.464;2023-04-12T02:53:40;10.10;90.80
42683;DHT22;28293;50.930;3.464;2023-04-12T02:56:06;10.10;90.80
42683;DHT22;28293;50.930;3.464;2023-04-12T02:58:33;10.10;90.90
42683;DHT22;28293;50.930;3.464;2023-04-12T03:00:59;10.10;90.90
42683;DHT22;28293;50.930;3.464;2023-04-12T03:03:25;10.10;90.80
42683;DHT22;28293;50.930;3.464;2023-04-12T03:05:53;10.10;90.80
42683;DHT22;28293;50.930;3.464;2023-04-12T03:08:19;10.10;90.70
42683;DHT22;28293;50.930;3.464;2023-04-12T03:10:46;10.20;90.70
42683;DHT22;28293;50.930;3.464;2023-04-12T03:13:12;10.20;90.70
42683;DHT22;28293;50.930;3.464;2023-04-12T03:15:37;10.20;90.70
42683;DHT22;28293;50.930;3.464;2023-04-12T03:18:03;10.20;90.70
42683;DHT22;28293;50.930;3.464;2023-04-12T03:20:29;10.20;90.70
42683;DHT22;28293;50.930;3.464;2023-04-12T03:22:55;10.20;90.80
42683;DHT22;28293;50.930;3.464;2023-04-12T03:25:20;10.20;90.70
42683;DHT22;28293;50.930;3.464;2023-04-12T03:27:46;10.20;90.70
42683;DHT22;28293;50.930;3.464;2023-04-12T03:30:12;10.20;90.80
42683;DHT22;28293;50.930;3.464;2023-04-12T03:32:41;10.20;90.80
42683;DHT22;28293;50.930;3.464;2023-04-12T03:35:08;10.20;90.90
42683;DHT22;28293;50.930;3.464;2023-04-12T03:37:34;10.20;90.90
42683;DHT22;28293;50.930;3.464;2023-04-12T03:40:00;10.20;91.00
42683;DHT22;28293;50.930;3.464;2023-04-12T03:42:27;10.20;90.90
42683;DHT22;28293;50.930;3.464;2023-04-12T03:44:53;10.20;90.70
42683;DHT22;28293;50.930;3.464;2023-04-12T03:47:19;10.20;90.60
42683;DHT22;28293;50.930;3.464;2023-04-12T03:49:48;10.30;90.70
42683;DHT22;28293;50.930;3.464;2023-04-12T03:52:14;10.20;90.60
42683;DHT22;28293;50.930;3.464;2023-04-12T03:54:40;10.30;90.50
42683;DHT22;28293;50.930;3.464;2023-04-12T03:57:05;10.20;90.30
42683;DHT22;28293;50.930;3.464;2023-04-12T03:59:31;10.20;90.40
42683;DHT22;28293;50.930;3.464;2023-04-12T04:01:58;10.30;90.40
42683;DHT22;28293;50.930;3.464;2023-04-12T04:04:26;10.20;90.40
42683;DHT22;28293;50.930;3.464;2023-04-12T04:06:52;10.20;90.30
42683;DHT22;28293;50.930;3.464;2023-04-12T04:09:17;10.10;90.20
42683;DHT22;28293;50.930;3.464;2023-04-12T04:11:43;10.10;90.30
42683;DHT22;28293;50.930;3.464;2023-04-12T04:14:09;10.10;90.20
42683;DHT22;28293;50.930;3.464;2023-04-12T04:16:35;10.10;90.30
42683;DHT22;28293;50.930;3.464;2023-04-12T04:19:01;10.10;90.00
42683;DHT22;28293;50.930;3.464;2023-04-12T04:21:26;10.00;90.10
42683;DHT22;28293;50.930;3.464;2023-04-12T04:23:55;10.00;90.10
42683;DHT22;28293;50.930;3.464;2023-04-12T04:26:22;10.00;89.90
42683;DHT22;28293;50.930;3.464;2023-04-12T04:28:58;9.90;89.90
42683;DHT22;28293;50.930;3.464;2023-04-12T04:31:28;9.90;89.80
42683;DHT22;28293;50.930;3.464;2023-04-12T04:34:02;9.90;89.70
42683;DHT22;28293;50.930;3.464;2023-04-12T04:36:33;9.80;89.40
42683;DHT22;28293;50.930;3.464;2023-04-12T04:39:00;9.90;89.30
42683;DHT22;28293;50.930;3.464;2023-04-12T04:41:25;9.80;89.10
42683;DHT22;28293;50.930;3.464;2023-04-12T04:43:51;9.80;88.90
42683;DHT22;28293;50.930;3.464;2023-04-12T04:46:19;9.70;88.30
42683;DHT22;28293;50.930;3.464;2023-04-12T04:48:47;9.70;88.20
42683;DHT22;28293;50.930;3.464;2023-04-12T04:51:13;9.60;88.10
42683;DHT22;28293;50.930;3.464;2023-04-12T04:53:39;9.60;87.90
42683;DHT22;28293;50.930;3.464;2023-04-12T04:56:05;9.50;87.50
42683;DHT22;28293;50.930;3.464;2023-04-12T04:58:31;9.60;87.30
42683;DHT22;28293;50.930;3.464;2023-04-12T05:00:57;9.60;87.00
42683;DHT22;28293;50.930;3.464;2023-04-12T05:03:24;9.50;87.10
42683;DHT22;28293;50.930;3.464;2023-04-12T05:05:53;9.60;87.20
42683;DHT22;28293;50.930;3.464;2023-04-12T05:08:19;9.60;87.10
42683;DHT22;28293;50.930;3.464;2023-04-12T05:10:50;9.50;87.20
42683;DHT22;28293;50.930;3.464;2023-04-12T05:13:17;9.60;87.20
42683;DHT22;28293;50.930;3.464;2023-04-12T05:15:43;9.60;87.10
42683;DHT22;28293;50.930;3.464;2023-04-12T05:18:08;9.60;87.20
42683;DHT22;28293;50.930;3.464;2023-04-12T05:20:36;9.50;87.20
42683;DHT22;28293;50.930;3.464;2023-04-12T05:23:03;9.60;87.30
42683;DHT22;28293;50.930;3.464;2023-04-12T05:25:28;9.60;87.40
42683;DHT22;28293;50.930;3.464;2023-04-12T05:27:54;9.60;87.50
42683;DHT22;28293;50.930;3.464;2023-04-12T05:30:20;9.60;87.40
42683;DHT22;28293;50.930;3.464;2023-04-12T05:32:45;9.60;87.40
42683;DHT22;28293;50.930;3.464;2023-04-12T05:35:11;9.50;87.30
42683;DHT22;28293;50.930;3.464;2023-04-12T05:37:37;9.50;87.30
42683;DHT22;28293;50.930;3.464;2023-04-12T05:40:03;9.40;87.20
42683;DHT22;28293;50.930;3.464;2023-04-12T05:42:31;9.40;87.10
42683;DHT22;28293;50.930;3.464;2023-04-12T05:44:57;9.30;87.20
42683;DHT22;28293;50.930;3.464;2023-04-12T05:47:23;9.40;87.10
42683;DHT22;28293;50.930;3.464;2023-04-12T05:49:48;9.40;87.20
42683;DHT22;28293;50.930;3.464;2023-04-12T05:52:14;9.40;86.90
42683;DHT22;28293;50.930;3.464;2023-04-12T05:54:40;9.60;87.10
42683;DHT22;28293;50.930;3.464;2023-04-12T05:57:06;9.70;87.20
42683;DHT22;28293;50.930;3.464;2023-04-12T05:59:32;9.80;87.00
42683;DHT22;28293;50.930;3.464;2023-04-12T06:01:57;9.80;86.70
42683;DHT22;28293;50.930;3.464;2023-04-12T06:04:24;9.90;86.40
42683;DHT22;28293;50.930;3.464;2023-04-12T06:06:50;9.90;86.30
42683;DHT22;28293;50.930;3.464;2023-04-12T06:09:16;10.10;86.10
42683;DHT22;28293;50.930;3.464;2023-04-12T06:11:42;10.10;85.70
42683;DHT22;28293;50.930;3.464;2023-04-12T06:14:07;10.10;85.00
42683;DHT22;28293;50.930;3.464;2023-04-12T06:16:33;10.20;85.20
42683;DHT22;28293;50.930;3.464;2023-04-12T06:18:58;10.20;84.90
42683;DHT22;28293;50.930;3.464;2023-04-12T06:21:24;10.20;84.70
42683;DHT22;28293;50.930;3.464;2023-04-12T06:23:50;10.30;84.50
42683;DHT22;28293;50.930;3.464;2023-04-12T06:26:16;10.20;84.40
42683;DHT22;28293;50.930;3.464;2023-04-12T06:28:41;10.10;84.30
42683;DHT22;28293;50.930;3.464;2023-04-12T06:31:07;10.10;84.60
42683;DHT22;28293;50.930;3.464;2023-04-12T06:33:33;10.10;85.00
42683;DHT22;28293;50.930;3.464;2023-04-12T06:36:01;10.20;84.80
42683;DHT22;28293;50.930;3.464;2023-04-12T06:38:26;10.40;84.70
42683;DHT22;28293;50.930;3.464;2023-04-12T06:40:52;10.50;84.70
42683;DHT22;28293;50.930;3.464;2023-04-12T06:43:18;10.60;84.30
42683;DHT22;28293;50.930;3.464;2023-04-12T06:45:44;10.80;84.20
42683;DHT22;28293;50.930;3.464;2023-04-12T06:48:10;11.10;83.20
42683;DHT22;28293;50.930;3.464;2023-04-12T06:50:36;11.20;82.70
42683;DHT22;28293;50.930;3.464;2023-04-12T06:53:02;11.10;81.40
42683;DHT22;28293;50.930;3.464;2023-04-12T06:55:27;11.10;81.00
42683;DHT22;28293;50.930;3.464;2023-04-12T06:57:54;11.10;80.30
42683;DHT22;28293;50.930;3.464;2023-04-12T07:00:20;11.00;80.50
42683;DHT22;28293;50.930;3.464;2023-04-12T07:02:46;10.90;80.30
42683;DHT22;28293;50.930;3.464;2023-04-12T07:05:12;10.80;80.20
42683;DHT22;28293;50.930;3.464;2023-04-12T07:07:38;10.90;80.30
42683;DHT22;28293;50.930;3.464;2023-04-12T07:10:04;10.80;80.10
42683;DHT22;28293;50.930;3.464;2023-04-12T07:12:30;10.70;79.30
42683;DHT22;28293;50.930;3.464;2023-04-12T07:14:56;10.80;80.00
42683;DHT22;28293;50.930;3.464;2023-04-12T07:17:22;10.90;79.30
42683;DHT22;28293;50.930;3.464;2023-04-12T07:19:48;11.00;79.10
42683;DHT22;28293;50.930;3.464;2023-04-12T07:22:14;11.10;79.40
42683;DHT22;28293;50.930;3.464;2023-04-12T07:24:40;11.10;79.00
42683;DHT22;28293;50.930;3.464;2023-04-12T07:27:06;11.30;78.50
42683;DHT22;28293;50.930;3.464;2023-04-12T07:29:31;11.10;78.50
42683;DHT22;28293;50.930;3.464;2023-04-12T07:31:58;11.20;78.40
42683;DHT22;28293;50.930;3.464;2023-04-12T07:34:25;11.20;78.00
42683;DHT22;28293;50.930;3.464;2023-04-12T07:36:50;11.30;77.80
42683;DHT22;28293;50.930;3.464;2023-04-12T07:39:16;11.50;77.20
42683;DHT22;28293;50.930;3.464;2023-04-12T07:41:42;11.90;76.50
42683;DHT22;28293;50.930;3.464;2023-04-12T07:44:10;12.10;76.20
42683;DHT22;28293;50.930;3.464;2023-04-12T07:46:37;12.30;75.80
42683;DHT22;28293;50.930;3.464;2023-04-12T07:49:03;12.30;75.20
42683;DHT22;28293;50.930;3.464;2023-04-12T07:51:28;12.50;74.10
42683;DHT22;28293;50.930;3.464;2023-04-12T07:53:54;12.60;74.30
42683;DHT22;28293;50.930;3.464;2023-04-12T07:56:20;12.40;72.90
42683;DHT22;28293;50.930;3.464;2023-04-12T07:58:45;12.00;73.90
42683;DHT22;28293;50.930;3.464;2023-04-12T08:01:13;12.00;75.30
42683;DHT22;28293;50.930;3.464;2023-04-12T08:03:39;12.00;75.10
42683;DHT22;28293;50.930;3.464;2023-04-12T08:06:05;11.80;75.10
42683;DHT22;28293;50.930;3.464;2023-04-12T08:08:31;11.90;75.60
42683;DHT22;28293;50.930;3.464;2023-04-12T08:10:56;11.80;75.10
42683;DHT22;28293;50.930;3.464;2023-04-12T08:13:22;11.80;74.90
42683;DHT22;28293;50.930;3.464;2023-04-12T08:15:48;11.70;75.00
42683;DHT22;28293;50.930;3.464;2023-04-12T08:18:14;12.00;74.50
42683;DHT22;28293;50.930;3.464;2023-04-12T08:20:40;12.10;74.40
42683;DHT22;28293;50.930;3.464;2023-04-12T08:23:06;12.20;74.00
42683;DHT22;28293;50.930;3.464;2023-04-12T08:25:32;12.60;72.70
42683;DHT22;28293;50.930;3.464;2023-04-12T08:27:58;12.70;71.80
42683;DHT22;28293;50.930;3.464;2023-04-12T08:30:24;12.60;71.80
42683;DHT22;28293;50.930;3.464;2023-04-12T08:32:54;12.70;72.50
42683;DHT22;28293;50.930;3.464;2023-04-12T08:35:20;12.60;71.80
42683;DHT22;28293;50.930;3.464;2023-04-12T08:37:47;12.50;71.70
42683;DHT22;28293;50.930;3.464;2023-04-12T08:40:13;12.60;72.50
42683;DHT22;28293;50.930;3.464;2023-04-12T08:42:39;12.60;72.60
42683;DHT22;28293;50.930;3.464;2023-04-12T08:45:08;12.40;71.90
42683;DHT22;28293;50.930;3.464;2023-04-12T08:47:39;12.60;73.00
42683;DHT22;28293;50.930;3.464;2023-04-12T08:50:06;12.60;71.80
42683;DHT22;28293;50.930;3.464;2023-04-12T08:52:34;12.60;72.10
42683;DHT22;28293;50.930;3.464;2023-04-12T08:55:07;12.50;72.20
42683;DHT22;28293;50.930;3.464;2023-04-12T08:57:39;12.40;72.30
42683;DHT22;28293;50.930;3.464;2023-04-12T09:00:07;12.60;72.20
42683;DHT22;28293;50.930;3.464;2023-04-12T09:02:37;12.90;72.00
42683;DHT22;28293;50.930;3.464;2023-04-12T09:05:04;12.90;70.00
42683;DHT22;28293;50.930;3.464;2023-04-12T09:07:30;13.10;70.60
42683;DHT22;28293;50.930;3.464;2023-04-12T09:09:57;13.10;69.50
42683;DHT22;28293;50.930;3.464;2023-04-12T09:12:23;13.10;69.50
42683;DHT22;28293;50.930;3.464;2023-04-12T09:15:09;13.10;69.80
42683;DHT22;28293;50.930;3.464;2023-04-12T09:17:37;13.20;70.20
42683;DHT22;28293;50.930;3.464;2023-04-12T09:20:21;13.60;69.30
42683;DHT22;28293;50.930;3.464;2023-04-12T09:22:48;13.90;67.80
42683;DHT22;28293;50.930;3.464;2023-04-12T09:25:14;14.00;67.00
42683;DHT22;28293;50.930;3.464;2023-04-12T09:27:54;14.40;66.10
42683;DHT22;28293;50.930;3.464;2023-04-12T09:30:21;14.40;64.80
42683;DHT22;28293;50.930;3.464;2023-04-12T09:32:47;14.40;64.40
42683;DHT22;28293;50.930;3.464;2023-04-12T09:35:17;14.60;64.90
42683;DHT22;28293;50.930;3.464;2023-04-12T09:37:43;14.10;63.30
42683;DHT22;28293;50.930;3.464;2023-04-12T09:40:09;13.50;64.60
42683;DHT22;28293;50.930;3.464;2023-04-12T09:42:49;13.20;64.30
42683;DHT22;28293;50.930;3.464;2023-04-12T09:45:23;13.00;66.50
42683;DHT22;28293;50.930;3.464;2023-04-12T09:47:50;13.10;64.30
42683;DHT22;28293;50.930;3.464;2023-04-12T09:50:24;13.00;66.10
42683;DHT22;28293;50.930;3.464;2023-04-12T09:52:52;13.20;65.80
42683;DHT22;28293;50.930;3.464;2023-04-12T09:55:26;13.10;65.20
42683;DHT22;28293;50.930;3.464;2023-04-12T09:57:53;13.30;64.80
42683;DHT22;28293;50.930;3.464;2023-04-12T10:00:22;14.00;64.80
42683;DHT22;28293;50.930;3.464;2023-04-12T10:02:50;14.60;61.10
42683;DHT22;28293;50.930;3.464;2023-04-12T10:05:18;14.80;60.90
42683;DHT22;28293;50.930;3.464;2023-04-12T10:07:45;14.70;59.00
42683;DHT22;28293;50.930;3.464;2023-04-12T10:10:12;14.70;57.60
42683;DHT22;28293;50.930;3.464;2023-04-12T10:12:42;14.60;58.10
42683;DHT22;28293;50.930;3.464;2023-04-12T10:15:09;14.30;57.70
42683;DHT22;28293;50.930;3.464;2023-04-12T10:17:44;14.10;59.70
42683;DHT22;28293;50.930;3.464;2023-04-12T10:20:12;13.60;60.90
42683;DHT22;28293;50.930;3.464;2023-04-12T10:22:39;13.40;63.90
42683;DHT22;28293;50.930;3.464;2023-04-12T10:25:12;13.10;66.00
42683;DHT22;28293;50.930;3.464;2023-04-12T10:27:40;12.40;67.30
42683;DHT22;28293;50.930;3.464;2023-04-12T10:35:47;11.20;73.10
42683;DHT22;28293;50.930;3.464;2023-04-12T10:38:14;11.10;73.70
42683;DHT22;28293;50.930;3.464;2023-04-12T10:41:18;10.80;76.20
42683;DHT22;28293;50.930;3.464;2023-04-12T10:43:44;10.80;76.70
42683;DHT22;28293;50.930;3.464;2023-04-12T10:49:09;11.00;76.30
42683;DHT22;28293;50.930;3.464;2023-04-12T10:51:35;11.30;77.40
42683;DHT22;28293;50.930;3.464;2023-04-12T10:59:04;12.90;74.90
42683;DHT22;28293;50.930;3.464;2023-04-12T11:01:30;13.20;72.60
42683;DHT22;28293;50.930;3.464;2023-04-12T11:06:53;13.60;70.90
42683;DHT22;28293;50.930;3.464;2023-04-12T11:09:48;13.60;66.60
42683;DHT22;28293;50.930;3.464;2023-04-12T11:12:15;13.60;67.00
42683;DHT22;28293;50.930;3.464;2023-04-12T11:14:49;13.90;65.90
42683;DHT22;28293;50.930;3.464;2023-04-12T11:19:42;13.00;66.10
42683;DHT22;28293;50.930;3.464;2023-04-12T11:22:10;13.00;67.60
42683;DHT22;28293;50.930;3.464;2023-04-12T11:24:39;13.00;67.50
42683;DHT22;28293;50.930;3.464;2023-04-12T11:27:05;13.10;67.70
42683;DHT22;28293;50.930;3.464;2023-04-12T11:29:31;13.60;67.90
42683;DHT22;28293;50.930;3.464;2023-04-12T11:31:57;13.50;65.30
42683;DHT22;28293;50.930;3.464;2023-04-12T11:34:23;13.20;64.70
42683;DHT22;28293;50.930;3.464;2023-04-12T11:36:53;12.80;64.20
42683;DHT22;28293;50.930;3.464;2023-04-12T11:39:19;13.10;65.40
42683;DHT22;28293;50.930;3.464;2023-04-12T11:41:48;13.40;64.00
42683;DHT22;28293;50.930;3.464;2023-04-12T11:44:15;13.70;63.70
42683;DHT22;28293;50.930;3.464;2023-04-12T11:46:46;14.10;62.80
42683;DHT22;28293;50.930;3.464;2023-04-12T11:49:19;14.60;62.80
42683;DHT22;28293;50.930;3.464;2023-04-12T11:51:45;15.10;60.00
42683;DHT22;28293;50.930;3.464;2023-04-12T11:54:12;15.10;59.00
42683;DHT22;28293;50.930;3.464;2023-04-12T11:56:39;14.90;58.70
42683;DHT22;28293;50.930;3.464;2023-04-12T11:59:05;14.40;59.70
42683;DHT22;28293;50.930;3.464;2023-04-12T12:01:33;13.90;63.20
42683;DHT22;28293;50.930;3.464;2023-04-12T12:03:59;13.60;70.30
42683;DHT22;28293;50.930;3.464;2023-04-12T12:06:25;13.40;71.90
42683;DHT22;28293;50.930;3.464;2023-04-12T12:08:52;13.50;74.20
42683;DHT22;28293;50.930;3.464;2023-04-12T12:11:21;13.60;71.70
42683;DHT22;28293;50.930;3.464;2023-04-12T12:13:55;13.90;71.70
42683;DHT22;28293;50.930;3.464;2023-04-12T12:16:28;14.00;69.70
42683;DHT22;28293;50.930;3.464;2023-04-12T12:18:54;13.00;67.00
42683;DHT22;28293;50.930;3.464;2023-04-12T12:21:20;11.60;71.20
42683;DHT22;28293;50.930;3.464;2023-04-12T12:23:47;11.50;73.70
42683;DHT22;28293;50.930;3.464;2023-04-12T12:26:26;11.50;73.10
42683;DHT22;28293;50.930;3.464;2023-04-12T12:28:56;11.00;73.50
42683;DHT22;28293;50.930;3.464;2023-04-12T12:31:26;11.10;75.00
42683;DHT22;28293;50.930;3.464;2023-04-12T12:33:57;11.40;75.50
42683;DHT22;28293;50.930;3.464;2023-04-12T12:36:31;11.80;75.00
42683;DHT22;28293;50.930;3.464;2023-04-12T12:39:02;11.90;73.30
42683;DHT22;28293;50.930;3.464;2023-04-12T12:41:30;12.00;72.30
42683;DHT22;28293;50.930;3.464;2023-04-12T12:43:55;12.10;71.30
42683;DHT22;28293;50.930;3.464;2023-04-12T12:46:21;12.60;69.90
42683;DHT22;28293;50.930;3.464;2023-04-12T12:48:47;12.60;68.50
42683;DHT22;28293;50.930;3.464;2023-04-12T12:51:14;12.60;67.40
42683;DHT22;28293;50.930;3.464;2023-04-12T12:53:44;12.60;67.30
42683;DHT22;28293;50.930;3.464;2023-04-12T12:56:11;13.10;66.20
42683;DHT22;28293;50.930;3.464;2023-04-12T12:58:38;12.90;62.70
42683;DHT22;28293;50.930;3.464;2023-04-12T13:01:04;12.80;57.20
42683;DHT22;28293;50.930;3.464;2023-04-12T13:03:31;13.30;54.90
42683;DHT22;28293;50.930;3.464;2023-04-12T13:05:57;13.50;53.80
42683;DHT22;28293;50.930;3.464;2023-04-12T13:08:23;13.80;53.60
42683;DHT22;28293;50.930;3.464;2023-04-12T13:10:50;14.10;52.10
42683;DHT22;28293;50.930;3.464;2023-04-12T13:13:16;13.80;52.10
42683;DHT22;28293;50.930;3.464;2023-04-12T13:15:42;13.90;52.90
42683;DHT22;28293;50.930;3.464;2023-04-12T13:18:08;13.70;52.70
42683;DHT22;28293;50.930;3.464;2023-04-12T13:20:34;13.90;52.30
42683;DHT22;28293;50.930;3.464;2023-04-12T13:22:59;14.10;54.10
42683;DHT22;28293;50.930;3.464;2023-04-12T13:25:25;14.00;56.90
42683;DHT22;28293;50.930;3.464;2023-04-12T13:27:51;14.40;58.90
42683;DHT22;28293;50.930;3.464;2023-04-12T13:30:19;14.60;60.20
42683;DHT22;28293;50.930;3.464;2023-04-12T13:32:45;14.70;58.90
42683;DHT22;28293;50.930;3.464;2023-04-12T13:35:12;14.50;56.40
42683;DHT22;28293;50.930;3.464;2023-04-12T13:37:38;14.10;54.70
42683;DHT22;28293;50.930;3.464;2023-04-12T13:40:04;14.30;53.60
42683;DHT22;28293;50.930;3.464;2023-04-12T13:42:30;14.30;53.70
42683;DHT22;28293;50.930;3.464;2023-04-12T13:44:55;14.20;52.70
42683;DHT22;28293;50.930;3.464;2023-04-12T13:47:21;14.10;52.60
42683;DHT22;28293;50.930;3.464;2023-04-12T13:49:47;13.50;51.90
42683;DHT22;28293;50.930;3.464;2023-04-12T13:52:13;13.10;53.10
42683;DHT22;28293;50.930;3.464;2023-04-12T13:54:39;12.90;60.70
42683;DHT22;28293;50.930;3.464;2023-04-12T13:57:05;12.80;62.70
42683;DHT22;28293;50.930;3.464;2023-04-12T13:59:32;12.70;61.70
42683;DHT22;28293;50.930;3.464;2023-04-12T14:01:58;12.70;60.70
42683;DHT22;28293;50.930;3.464;2023-04-12T14:04:27;12.70;61.30
42683;DHT22;28293;50.930;3.464;2023-04-12T14:06:53;13.10;60.00
42683;DHT22;28293;50.930;3.464;2023-04-12T14:09:26;13.20;58.60
42683;DHT22;28293;50.930;3.464;2023-04-12T14:11:54;13.60;59.30
42683;DHT22;28293;50.930;3.464;2023-04-12T14:14:21;13.60;57.50
42683;DHT22;28293;50.930;3.464;2023-04-12T14:16:48;13.80;55.60
42683;DHT22;28293;50.930;3.464;2023-04-12T14:19:15;13.90;54.90
42683;DHT22;28293;50.930;3.464;2023-04-12T14:21:41;13.90;53.60
42683;DHT22;28293;50.930;3.464;2023-04-12T14:24:07;13.90;54.10
42683;DHT22;28293;50.930;3.464;2023-04-12T14:26:32;14.00;54.30
42683;DHT22;28293;50.930;3.464;2023-04-12T14:28:58;13.90;53.70
42683;DHT22;28293;50.930;3.464;2023-04-12T14:31:24;14.10;54.90
42683;DHT22;28293;50.930;3.464;2023-04-12T14:33:50;14.00;52.60
42683;DHT22;28293;50.930;3.464;2023-04-12T14:36:16;14.20;51.50
42683;DHT22;28293;50.930;3.464;2023-04-12T14:38:42;14.20;51.30
42683;DHT22;28293;50.930;3.464;2023-04-12T14:41:08;14.40;51.50
42683;DHT22;28293;50.930;3.464;2023-04-12T14:43:34;14.60;51.30
42683;DHT22;28293;50.930;3.464;2023-04-12T14:46:00;14.60;51.60
42683;DHT22;28293;50.930;3.464;2023-04-12T14:48:26;14.70;47.30
42683;DHT22;28293;50.930;3.464;2023-04-12T14:50:51;14.40;43.00
42683;DHT22;28293;50.930;3.464;2023-04-12T14:53:19;14.30;43.90
42683;DHT22;28293;50.930;3.464;2023-04-12T14:55:45;14.20;45.10
42683;DHT22;28293;50.930;3.464;2023-04-12T14:58:11;14.10;44.40
42683;DHT22;28293;50.930;3.464;2023-04-12T15:00:38;13.80;46.60
42683;DHT22;28293;50.930;3.464;2023-04-12T15:03:04;13.80;46.00
42683;DHT22;28293;50.930;3.464;2023-04-12T15:05:34;13.90;45.80
42683;DHT22;28293;50.930;3.464;2023-04-12T15:08:00;13.80;45.10
42683;DHT22;28293;50.930;3.464;2023-04-12T15:10:26;13.90;45.80
42683;DHT22;28293;50.930;3.464;2023-04-12T15:12:52;13.90;44.30
42683;DHT22;28293;50.930;3.464;2023-04-12T15:15:18;13.80;44.70
42683;DHT22;28293;50.930;3.464;2023-04-12T15:17:44;14.10;45.80
42683;DHT22;28293;50.930;3.464;2023-04-12T15:20:10;14.10;44.00
42683;DHT22;28293;50.930;3.464;2023-04-12T15:22:38;13.90;45.20
42683;DHT22;28293;50.930;3.464;2023-04-12T15:25:05;14.10;45.70
42683;DHT22;28293;50.930;3.464;2023-04-12T15:27:31;14.10;46.20
42683;DHT22;28293;50.930;3.464;2023-04-12T15:29:58;14.00;46.50
42683;DHT22;28293;50.930;3.464;2023-04-12T15:32:25;14.10;47.10
42683;DHT22;28293;50.930;3.464;2023-04-12T15:34:51;14.00;46.70
42683;DHT22;28293;50.930;3.464;2023-04-12T15:37:17;13.80;46.40
42683;DHT22;28293;50.930;3.464;2023-04-12T15:39:43;13.60;48.10
42683;DHT22;28293;50.930;3.464;2023-04-12T15:42:09;13.60;48.30
42683;DHT22;28293;50.930;3.464;2023-04-12T15:44:35;13.70;48.20
42683;DHT22;28293;50.930;3.464;2023-04-12T15:47:01;13.80;48.10
42683;DHT22;28293;50.930;3.464;2023-04-12T15:49:27;14.00;48.70
42683;DHT22;28293;50.930;3.464;2023-04-12T15:51:53;13.90;47.50
42683;DHT22;28293;50.930;3.464;2023-04-12T15:54:22;13.80;47.60
42683;DHT22;28293;50.930;3.464;2023-04-12T15:56:48;13.70;49.10
42683;DHT22;28293;50.930;3.464;2023-04-12T15:59:15;13.60;49.90
42683;DHT22;28293;50.930;3.464;2023-04-12T16:01:43;13.80;49.50